createdAt,value
2024-05-09T00:02:14.929Z,51.71
2024-05-09T00:30:58.472Z,51.71
2024-05-09T00:59:45.260Z,51.72
2024-05-09T01:28:30.430Z,51.72
2024-05-09T01:57:16.206Z,51.73
2024-05-09T02:25:59.494Z,51.72
2024-05-09T02:54:41.894Z,51.73
2024-05-09T03:23:30.651Z,51.72
2024-05-09T03:52:09.114Z,51.71
2024-05-09T04:20:53.287Z,51.71
2024-05-09T04:49:34.802Z,52.32
2024-05-09T05:18:14.457Z,52.56
2024-05-09T05:46:57.331Z,52.5
2024-05-09T06:15:44.432Z,52.22
2024-05-09T06:44:19.317Z,53.56
2024-05-09T07:12:55.676Z,53.97
2024-05-09T07:41:36.903Z,54.36
2024-05-09T08:10:53.297Z,53.7
2024-05-09T08:39:18.208Z,53.42
2024-05-09T09:07:56.058Z,53.84
2024-05-09T09:36:34.955Z,53.38
2024-05-09T10:05:19.012Z,52.97
2024-05-09T10:33:55.720Z,52.76
2024-05-09T11:02:25.682Z,52.64
2024-05-09T11:31:01.654Z,52.56
2024-05-09T11:59:40.003Z,52.47
2024-05-09T12:28:22.446Z,52.39
2024-05-09T12:57:01.282Z,52.33
2024-05-09T13:25:31.871Z,52.25
2024-05-09T13:54:23.249Z,54.6
2024-05-09T14:22:49.372Z,53.56
2024-05-09T14:51:31.610Z,53.07
2024-05-09T15:20:24.235Z,52.81
2024-05-09T15:48:36.065Z,52.63
2024-05-09T16:17:14.567Z,52.47
2024-05-09T16:45:47.464Z,52.38
2024-05-09T17:14:24.807Z,52.26
2024-05-09T17:43:12.069Z,52.18
2024-05-09T18:11:42.488Z,52.15
2024-05-09T18:41:00.363Z,52.12
2024-05-09T19:09:23.205Z,52.12
2024-05-09T20:06:38.249Z,52.07
2024-05-09T20:35:15.171Z,52.05
2024-05-09T21:03:55.860Z,52.05
2024-05-09T21:32:31.194Z,52.05
2024-05-09T22:01:05.477Z,52.02
2024-05-09T22:29:45.206Z,52.01
2024-05-09T22:58:26.692Z,52
2024-05-09T23:27:04.900Z,51.99
2024-05-09T23:55:43.931Z,51.96
